Terminal Aerodrome Forecast
Issued by NWS

Home | Current Version | Previous Version | Text Only | Print | Product List | Glossary Off
Versions: 1 2 3 4 5 6 7 8 9 10 11 12 13 14 15

000
FTUS43 KGRB 292300
TAFAUW
TAF
KAUW 292338Z 3000/3024 32008KT P6SM VCSH SCT050 BKN100
      TEMPO 3000/3003 6SM -SHRA BKN050
     FM300300 34005KT P6SM SCT010 SCT070
     FM301000 32002KT 5SM BR SCT070
     FM301300 32004KT P6SM SCT100
     FM301800 29009KT P6SM BKN050=

USA.gov is the U.S. government's official web portal to all federal, state and local government web resources and services.